PWSweather.com
Personal Weather Stations
Station Observations
KV9EWX
Winnebago, Il, Winnebago, IL 61088

Winnebago, IlWinnebago, IL 61088

Lat: 42.261175, Lon: -89.236369

Elevation: 892

Station Type: Lacrosse ws-2811

Latest ConditionsUpdated 8:28:31 PM CST Sunday, Nov 23, 2014
Currently Today's Max Today's Min Today's Average
Temperature 46.3°F7.9°C 48.2°F9.0°C 44.1°F6.7°C 46.4°F8.0°C
Dew Point 44.6°F7.0°C 45.7°F7.6°C 41.6°F5.3°C 44.4°F6.9°C
Winds 0.8 mph SE1.3 kmh SE 10.4 mph S16.7 kmh S - 6.0 mph 9.7 kmh
Wind Gusts 3.1 mph5.0 kmh 19.9 mph32.0 kmh - -
Humidity 94% 94% 90% 93%
Pressure 28.82 in976.0 mb 29.35 in993.9 mb 28.82 in976.0 mb -
Precipitation - 0.45 in11.4 mm - -
Hour Temp Dew Point Humidity Winds Wind Gusts Pressure Precip Precip Rate Daily Precip Total
08:28 PM 46.3°F7.9°C 44.6°F7.0°C 94% 0.8 mph SE1.3 kmh SE 3.1 mph5.0 kmh 28.82 in976.0 mb 0.04 in1.0 mm 0.00 in/hr0.0 mm/hr 0.45 in11.4 mm
08:23 PM 46.3°F7.9°C 44.6°F7.0°C 94% 1.4 mph SE2.3 kmh SE 3.1 mph5.0 kmh 28.82 in976.0 mb 0.04 in1.0 mm 0.00 in/hr0.0 mm/hr 0.45 in11.4 mm
08:18 PM 46.3°F7.9°C 44.6°F7.0°C 94% 1.3 mph ESE2.1 kmh ESE 3.9 mph6.3 kmh 28.82 in976.0 mb 0.04 in1.0 mm 0.00 in/hr0.0 mm/hr 0.45 in11.4 mm
08:13 PM 46.3°F7.9°C 44.6°F7.0°C 94% 2.0 mph SE3.2 kmh SE 4.4 mph7.1 kmh 28.83 in976.3 mb 0.04 in1.0 mm 0.00 in/hr0.0 mm/hr 0.44 in11.2 mm
08:08 PM 46.3°F7.9°C 44.6°F7.0°C 94% 1.3 mph SE2.1 kmh SE 4.7 mph7.6 kmh 28.83 in976.3 mb 0.04 in1.0 mm 0.00 in/hr0.0 mm/hr 0.44 in11.2 mm
08:03 PM 46.1°F7.8°C 44.4°F6.9°C 94% 1.9 mph SE3.1 kmh SE 5.1 mph8.2 kmh 28.83 in976.3 mb 0.04 in1.0 mm 0.01 in/hr0.3 mm/hr 0.44 in11.2 mm
07:58 PM 46.3°F7.9°C 44.6°F7.0°C 94% 2.3 mph ESE3.7 kmh ESE 5.1 mph8.2 kmh 28.83 in976.3 mb 0.03 in0.8 mm 0.00 in/hr0.0 mm/hr 0.43 in10.9 mm
07:53 PM 46.3°F7.9°C 44.6°F7.0°C 94% 1.5 mph ESE2.4 kmh ESE 4.4 mph7.1 kmh 28.84 in976.6 mb 0.03 in0.8 mm 0.00 in/hr0.0 mm/hr 0.43 in10.9 mm
07:48 PM 46.3°F7.9°C 44.6°F7.0°C 94% 2.6 mph SE4.2 kmh SE 5.1 mph8.2 kmh 28.84 in976.6 mb 0.03 in0.8 mm 0.00 in/hr0.0 mm/hr 0.42 in10.7 mm
07:43 PM 46.3°F7.9°C 44.6°F7.0°C 94% 1.9 mph SE3.1 kmh SE 5.1 mph8.2 kmh 28.85 in977.0 mb 0.03 in0.8 mm 0.00 in/hr0.0 mm/hr 0.42 in10.7 mm
07:38 PM 46.3°F7.9°C 44.6°F7.0°C 94% 1.6 mph SE2.6 kmh SE 6.0 mph9.7 kmh 28.85 in977.0 mb 0.03 in0.8 mm 0.00 in/hr0.0 mm/hr 0.42 in10.7 mm
07:33 PM 46.3°F7.9°C 44.6°F7.0°C 94% 2.3 mph ESE3.7 kmh ESE 6.0 mph9.7 kmh 28.85 in977.0 mb 0.04 in1.0 mm 0.12 in/hr3.0 mm/hr 0.42 in10.7 mm
07:28 PM 46.5°F8.1°C 44.8°F7.1°C 94% 2.1 mph ESE3.4 kmh ESE 4.4 mph7.1 kmh 28.86 in977.3 mb 0.03 in0.8 mm 0.00 in/hr0.0 mm/hr 0.41 in10.4 mm
07:23 PM 46.5°F8.1°C 44.8°F7.1°C 94% 2.3 mph ESE3.7 kmh ESE 4.4 mph7.1 kmh 28.86 in977.3 mb 0.03 in0.8 mm 0.00 in/hr0.0 mm/hr 0.41 in10.4 mm
07:18 PM 46.3°F7.9°C 44.6°F7.0°C 94% 1.8 mph SE2.9 kmh SE 6.0 mph9.7 kmh 28.86 in977.3 mb 0.03 in0.8 mm 0.12 in/hr3.0 mm/hr 0.41 in10.4 mm
07:13 PM 46.5°F8.1°C 44.8°F7.1°C 94% 1.9 mph ESE3.1 kmh ESE 6.0 mph9.7 kmh 28.87 in977.7 mb 0.02 in0.5 mm 0.00 in/hr0.0 mm/hr 0.40 in10.2 mm
07:08 PM 46.3°F7.9°C 44.6°F7.0°C 94% 2.3 mph SE3.7 kmh SE 4.4 mph7.1 kmh 28.87 in977.7 mb 0.03 in0.8 mm 0.00 in/hr0.0 mm/hr 0.40 in10.2 mm
07:03 PM 46.3°F7.9°C 44.6°F7.0°C 94% 1.8 mph ESE2.9 kmh ESE 6.7 mph10.8 kmh 28.87 in977.7 mb 0.03 in0.8 mm 0.00 in/hr0.0 mm/hr 0.40 in10.2 mm
06:58 PM 46.5°F8.1°C 44.8°F7.1°C 94% 3.1 mph SE5.0 kmh SE 6.7 mph10.8 kmh 28.88 in978.0 mb 0.03 in0.8 mm 0.00 in/hr0.0 mm/hr 0.40 in10.2 mm
06:53 PM 46.5°F8.1°C 44.8°F7.1°C 94% 2.2 mph ESE3.5 kmh ESE 6.7 mph10.8 kmh 28.88 in978.0 mb 0.03 in0.8 mm 0.00 in/hr0.0 mm/hr 0.40 in10.2 mm
06:48 PM 46.5°F8.1°C 44.8°F7.1°C 94% 3.5 mph SE5.6 kmh SE 6.7 mph10.8 kmh 28.88 in978.0 mb 0.03 in0.8 mm 0.00 in/hr0.0 mm/hr 0.39 in9.9 mm
06:43 PM 46.5°F8.1°C 44.8°F7.1°C 94% 2.3 mph SE3.7 kmh SE 6.7 mph10.8 kmh 28.88 in978.0 mb 0.03 in0.8 mm 0.00 in/hr0.0 mm/hr 0.39 in9.9 mm
06:38 PM 46.5°F8.1°C 44.8°F7.1°C 94% 3.2 mph SE5.1 kmh SE 7.9 mph12.7 kmh 28.89 in978.3 mb 0.03 in0.8 mm 0.12 in/hr3.0 mm/hr 0.39 in9.9 mm
06:33 PM 46.5°F8.1°C 44.8°F7.1°C 94% 2.8 mph SE4.5 kmh SE 7.9 mph12.7 kmh 28.89 in978.3 mb 0.02 in0.5 mm 0.00 in/hr0.0 mm/hr 0.37 in9.4 mm
06:28 PM 46.5°F8.1°C 44.8°F7.1°C 94% 3.1 mph SE5.0 kmh SE 10.5 mph16.9 kmh 28.89 in978.3 mb 0.02 in0.5 mm 0.00 in/hr0.0 mm/hr 0.37 in9.4 mm
06:23 PM 46.5°F8.1°C 44.8°F7.1°C 94% 4.4 mph ESE7.1 kmh ESE 10.5 mph16.9 kmh 28.90 in978.7 mb 0.02 in0.5 mm 0.00 in/hr0.0 mm/hr 0.37 in9.4 mm
06:18 PM 46.5°F8.1°C 44.8°F7.1°C 94% 3.5 mph SE5.6 kmh SE 10.5 mph16.9 kmh 28.90 in978.7 mb 0.02 in0.5 mm 0.00 in/hr0.0 mm/hr 0.37 in9.4 mm
06:13 PM 46.5°F8.1°C 44.8°F7.1°C 94% 4.6 mph SE7.4 kmh SE 8.9 mph14.3 kmh 28.90 in978.7 mb 0.02 in0.5 mm 0.00 in/hr0.0 mm/hr 0.37 in9.4 mm
06:08 PM 46.5°F8.1°C 44.8°F7.1°C 94% 4.3 mph SSE6.9 kmh SSE 8.9 mph14.3 kmh 28.91 in979.0 mb 0.02 in0.5 mm 0.00 in/hr0.0 mm/hr 0.36 in9.1 mm
06:03 PM 46.5°F8.1°C 44.8°F7.1°C 94% 5.6 mph SE9.0 kmh SE 8.9 mph14.3 kmh 28.91 in979.0 mb 0.02 in0.5 mm 0.00 in/hr0.0 mm/hr 0.36 in9.1 mm
05:58 PM 46.5°F8.1°C 44.8°F7.1°C 94% 2.7 mph SE4.3 kmh SE 8.2 mph13.2 kmh 28.91 in979.0 mb 0.02 in0.5 mm 0.00 in/hr0.0 mm/hr 0.36 in9.1 mm
05:53 PM 46.5°F8.1°C 44.8°F7.1°C 94% 3.7 mph ESE6.0 kmh ESE 8.9 mph14.3 kmh 28.92 in979.3 mb 0.03 in0.8 mm 0.12 in/hr3.0 mm/hr 0.36 in9.1 mm
05:48 PM 46.5°F8.1°C 44.8°F7.1°C 94% 4.2 mph SE6.8 kmh SE 9.4 mph15.1 kmh 28.92 in979.3 mb 0.02 in0.5 mm 0.00 in/hr0.0 mm/hr 0.35 in8.9 mm
05:43 PM 46.5°F8.1°C 44.8°F7.1°C 94% 6.1 mph SE9.8 kmh SE 9.4 mph15.1 kmh 28.93 in979.7 mb 0.02 in0.5 mm 0.00 in/hr0.0 mm/hr 0.35 in8.9 mm
05:38 PM 46.5°F8.1°C 44.8°F7.1°C 94% 5.0 mph SE8.0 kmh SE 9.8 mph15.8 kmh 28.93 in979.7 mb 0.02 in0.5 mm 0.00 in/hr0.0 mm/hr 0.35 in8.9 mm
05:33 PM 46.5°F8.1°C 44.8°F7.1°C 94% 4.4 mph SE7.1 kmh SE 9.8 mph15.8 kmh 28.93 in979.7 mb 0.02 in0.5 mm 0.00 in/hr0.0 mm/hr 0.35 in8.9 mm
05:28 PM 46.5°F8.1°C 44.8°F7.1°C 94% 4.0 mph SE6.4 kmh SE 11.0 mph17.7 kmh 28.94 in980.0 mb 0.02 in0.5 mm 0.00 in/hr0.0 mm/hr 0.35 in8.9 mm
05:23 PM 46.5°F8.1°C 44.8°F7.1°C 94% 5.4 mph SSE8.7 kmh SSE 11.0 mph17.7 kmh 28.94 in980.0 mb 0.03 in0.8 mm 0.00 in/hr0.0 mm/hr 0.35 in8.9 mm
05:18 PM 46.5°F8.1°C 44.8°F7.1°C 94% 5.7 mph SE9.2 kmh SE 14.5 mph23.3 kmh 28.95 in980.4 mb 0.03 in0.8 mm 0.00 in/hr0.0 mm/hr 0.35 in8.9 mm
05:13 PM 46.5°F8.1°C 44.8°F7.1°C 94% 5.9 mph SSE9.5 kmh SSE 14.5 mph23.3 kmh 28.95 in980.4 mb 0.03 in0.8 mm 0.12 in/hr3.0 mm/hr 0.35 in8.9 mm
05:08 PM 46.5°F8.1°C 44.8°F7.1°C 94% 4.7 mph SE7.6 kmh SE 11.0 mph17.7 kmh 28.95 in980.4 mb 0.02 in0.5 mm 0.00 in/hr0.0 mm/hr 0.34 in8.6 mm
05:03 PM 46.5°F8.1°C 44.8°F7.1°C 94% 5.9 mph SSE9.5 kmh SSE 11.0 mph17.7 kmh 28.96 in980.7 mb 0.03 in0.8 mm 0.00 in/hr0.0 mm/hr 0.34 in8.6 mm
04:58 PM 46.5°F8.1°C 44.8°F7.1°C 94% 7.1 mph SSE11.4 kmh SSE 12.9 mph20.8 kmh 28.96 in980.7 mb 0.03 in0.8 mm 0.12 in/hr3.0 mm/hr 0.34 in8.6 mm
04:53 PM 46.5°F8.1°C 44.8°F7.1°C 94% 6.3 mph SSE10.1 kmh SSE 14.5 mph23.3 kmh 28.96 in980.7 mb 0.02 in0.5 mm 0.00 in/hr0.0 mm/hr 0.33 in8.4 mm
04:48 PM 46.5°F8.1°C 44.8°F7.1°C 94% 7.4 mph SE11.9 kmh SE 14.5 mph23.3 kmh 28.96 in980.7 mb 0.02 in0.5 mm 0.00 in/hr0.0 mm/hr 0.33 in8.4 mm
04:43 PM 46.3°F7.9°C 44.6°F7.0°C 94% 5.4 mph SE8.7 kmh SE 15.2 mph24.5 kmh 28.97 in981.0 mb 0.03 in0.8 mm 0.00 in/hr0.0 mm/hr 0.33 in8.4 mm
04:38 PM 46.5°F8.1°C 44.8°F7.1°C 94% 7.5 mph SE12.1 kmh SE 15.2 mph24.5 kmh 28.97 in981.0 mb 0.03 in0.8 mm 0.00 in/hr0.0 mm/hr 0.33 in8.4 mm
04:33 PM 46.5°F8.1°C 44.8°F7.1°C 94% 4.6 mph ESE7.4 kmh ESE 8.2 mph13.2 kmh 28.98 in981.4 mb 0.03 in0.8 mm 0.00 in/hr0.0 mm/hr 0.33 in8.4 mm
04:28 PM 46.5°F8.1°C 44.8°F7.1°C 94% 5.2 mph SE8.4 kmh SE 12.9 mph20.8 kmh 28.98 in981.4 mb 0.03 in0.8 mm 0.12 in/hr3.0 mm/hr 0.33 in8.4 mm
04:23 PM 46.5°F8.1°C 44.8°F7.1°C 94% 5.5 mph SE8.9 kmh SE 12.9 mph20.8 kmh 28.98 in981.4 mb 0.02 in0.5 mm 0.00 in/hr0.0 mm/hr 0.32 in8.1 mm
04:18 PM 46.5°F8.1°C 44.8°F7.1°C 94% 6.2 mph SSE10.0 kmh SSE 11.0 mph17.7 kmh 28.99 in981.7 mb 0.02 in0.5 mm 0.00 in/hr0.0 mm/hr 0.32 in8.1 mm
04:13 PM 46.5°F8.1°C 44.8°F7.1°C 94% 5.3 mph SSE8.5 kmh SSE 11.0 mph17.7 kmh 28.99 in981.7 mb 0.02 in0.5 mm 0.00 in/hr0.0 mm/hr 0.32 in8.1 mm
04:08 PM 46.5°F8.1°C 44.5°F6.9°C 93% 4.4 mph SE7.1 kmh SE 11.4 mph18.3 kmh 28.99 in981.7 mb 0.02 in0.5 mm 0.12 in/hr3.0 mm/hr 0.32 in8.1 mm
04:03 PM 46.5°F8.1°C 44.5°F6.9°C 93% 6.0 mph SE9.7 kmh SE 13.3 mph21.4 kmh 28.99 in981.7 mb 0.01 in0.3 mm 0.00 in/hr0.0 mm/hr 0.31 in7.9 mm
03:58 PM 46.3°F7.9°C 44.3°F6.8°C 93% 5.4 mph SE8.7 kmh SE 13.3 mph21.4 kmh 28.99 in981.7 mb 0.01 in0.3 mm 0.00 in/hr0.0 mm/hr 0.31 in7.9 mm
03:53 PM 46.5°F8.1°C 44.5°F6.9°C 93% 4.5 mph SSE7.2 kmh SSE 13.3 mph21.4 kmh 29.00 in982.1 mb 0.01 in0.3 mm 0.00 in/hr0.0 mm/hr 0.31 in7.9 mm
03:48 PM 46.5°F8.1°C 44.5°F6.9°C 93% 5.8 mph SE9.3 kmh SE 9.4 mph15.1 kmh 29.00 in982.1 mb 0.01 in0.3 mm 0.12 in/hr3.0 mm/hr 0.31 in7.9 mm
03:43 PM 46.7°F8.2°C 44.7°F7.1°C 93% 5.4 mph S8.7 kmh S 9.4 mph15.1 kmh 29.00 in982.1 mb 0.00 in0.0 mm 0.00 in/hr0.0 mm/hr 0.30 in7.6 mm
03:38 PM 46.8°F8.2°C 44.8°F7.1°C 93% 3.6 mph SE5.8 kmh SE 8.9 mph14.3 kmh 29.00 in982.1 mb 0.00 in0.0 mm 0.00 in/hr0.0 mm/hr 0.30 in7.6 mm
03:33 PM 46.8°F8.2°C 44.8°F7.1°C 93% 5.3 mph E8.5 kmh E 10.2 mph16.4 kmh 29.00 in982.1 mb 0.00 in0.0 mm 0.00 in/hr0.0 mm/hr 0.30 in7.6 mm
03:28 PM 46.8°F8.2°C 44.8°F7.1°C 93% 4.0 mph SE6.4 kmh SE 11.4 mph18.3 kmh 29.00 in982.1 mb 0.00 in0.0 mm 0.00 in/hr0.0 mm/hr 0.30 in7.6 mm
03:23 PM 46.8°F8.2°C 44.8°F7.1°C 93% 6.8 mph SE10.9 kmh SE 13.3 mph21.4 kmh 29.01 in982.4 mb 0.00 in0.0 mm 0.00 in/hr0.0 mm/hr 0.30 in7.6 mm
03:18 PM 46.9°F8.3°C 45.0°F7.2°C 93% 6.9 mph SE11.1 kmh SE 13.3 mph21.4 kmh 29.01 in982.4 mb 0.00 in0.0 mm 0.00 in/hr0.0 mm/hr 0.30 in7.6 mm
03:13 PM 46.9°F8.3°C 45.0°F7.2°C 93% 5.4 mph SE8.7 kmh SE 12.1 mph19.5 kmh 29.01 in982.4 mb 0.00 in0.0 mm 0.00 in/hr0.0 mm/hr 0.30 in7.6 mm
03:08 PM 46.9°F8.3°C 45.0°F7.2°C 93% 6.2 mph SE10.0 kmh SE 12.9 mph20.8 kmh 29.01 in982.4 mb 0.00 in0.0 mm 0.00 in/hr0.0 mm/hr 0.30 in7.6 mm
03:03 PM 46.9°F8.3°C 45.0°F7.2°C 93% 6.1 mph SE9.8 kmh SE 14.2 mph22.9 kmh 29.01 in982.4 mb 0.00 in0.0 mm 0.00 in/hr0.0 mm/hr 0.30 in7.6 mm
02:58 PM 47.1°F8.4°C 45.2°F7.3°C 93% 8.0 mph SE12.9 kmh SE 14.2 mph22.9 kmh 29.02 in982.7 mb 0.00 in0.0 mm 0.00 in/hr0.0 mm/hr 0.30 in7.6 mm
02:53 PM 46.9°F8.3°C 45.0°F7.2°C 93% 5.7 mph SE9.2 kmh SE 12.1 mph19.5 kmh 29.02 in982.7 mb 0.00 in0.0 mm 0.00 in/hr0.0 mm/hr 0.30 in7.6 mm
02:48 PM 47.1°F8.4°C 45.2°F7.3°C 93% 6.3 mph SSE10.1 kmh SSE 14.9 mph24.0 kmh 29.02 in982.7 mb 0.00 in0.0 mm 0.00 in/hr0.0 mm/hr 0.30 in7.6 mm
02:43 PM 47.1°F8.4°C 45.2°F7.3°C 93% 3.7 mph SE6.0 kmh SE 14.9 mph24.0 kmh 29.03 in983.1 mb 0.00 in0.0 mm 0.00 in/hr0.0 mm/hr 0.30 in7.6 mm
02:38 PM 47.1°F8.4°C 45.2°F7.3°C 93% 7.5 mph SSE12.1 kmh SSE 13.3 mph21.4 kmh 29.03 in983.1 mb 0.00 in0.0 mm 0.00 in/hr0.0 mm/hr 0.30 in7.6 mm
02:33 PM 47.1°F8.4°C 45.2°F7.3°C 93% 7.7 mph SE12.4 kmh SE 11.0 mph17.7 kmh 29.03 in983.1 mb 0.00 in0.0 mm 0.00 in/hr0.0 mm/hr 0.30 in7.6 mm
02:28 PM 47.1°F8.4°C 45.2°F7.3°C 93% 5.4 mph SE8.7 kmh SE 13.3 mph21.4 kmh 29.03 in983.1 mb 0.00 in0.0 mm 0.00 in/hr0.0 mm/hr 0.30 in7.6 mm
02:23 PM 47.1°F8.4°C 45.2°F7.3°C 93% 6.3 mph SE10.1 kmh SE 13.3 mph21.4 kmh 29.04 in983.4 mb 0.00 in0.0 mm 0.00 in/hr0.0 mm/hr 0.30 in7.6 mm
02:18 PM 47.1°F8.4°C 45.2°F7.3°C 93% 5.2 mph S8.4 kmh S 12.1 mph19.5 kmh 29.04 in983.4 mb 0.00 in0.0 mm 0.00 in/hr0.0 mm/hr 0.30 in7.6 mm
02:13 PM 47.1°F8.4°C 45.2°F7.3°C 93% 5.4 mph SE8.7 kmh SE 14.9 mph24.0 kmh 29.04 in983.4 mb 0.00 in0.0 mm 0.00 in/hr0.0 mm/hr 0.30 in7.6 mm
02:08 PM 47.1°F8.4°C 45.2°F7.3°C 93% 6.3 mph SSE10.1 kmh SSE 17.1 mph27.5 kmh 29.04 in983.4 mb 0.00 in0.0 mm 0.00 in/hr0.0 mm/hr 0.30 in7.6 mm
02:03 PM 47.1°F8.4°C 45.2°F7.3°C 93% 8.8 mph SE14.2 kmh SE 17.1 mph27.5 kmh 29.05 in983.7 mb 0.00 in0.0 mm 0.00 in/hr0.0 mm/hr 0.30 in7.6 mm
01:58 PM 47.1°F8.4°C 45.2°F7.3°C 93% 7.4 mph SSE11.9 kmh SSE 13.3 mph21.4 kmh 29.05 in983.7 mb 0.00 in0.0 mm 0.00 in/hr0.0 mm/hr 0.30 in7.6 mm
01:53 PM 46.9°F8.3°C 45.0°F7.2°C 93% 5.5 mph SSE8.9 kmh SSE 13.3 mph21.4 kmh 29.06 in984.1 mb 0.00 in0.0 mm 0.00 in/hr0.0 mm/hr 0.30 in7.6 mm
01:48 PM 46.8°F8.2°C 44.8°F7.1°C 93% 5.8 mph SE9.3 kmh SE 11.7 mph18.8 kmh 29.06 in984.1 mb 0.01 in0.3 mm 0.00 in/hr0.0 mm/hr 0.30 in7.6 mm
01:43 PM 46.8°F8.2°C 44.8°F7.1°C 93% 5.1 mph SE8.2 kmh SE 11.4 mph18.3 kmh 29.07 in984.4 mb 0.01 in0.3 mm 0.00 in/hr0.0 mm/hr 0.30 in7.6 mm
01:38 PM 46.8°F8.2°C 44.8°F7.1°C 93% 4.8 mph SSE7.7 kmh SSE 11.4 mph18.3 kmh 29.07 in984.4 mb 0.01 in0.3 mm 0.00 in/hr0.0 mm/hr 0.30 in7.6 mm
01:33 PM 46.8°F8.2°C 44.8°F7.1°C 93% 3.0 mph SSE4.8 kmh SSE 11.7 mph18.8 kmh 29.07 in984.4 mb 0.01 in0.3 mm 0.00 in/hr0.0 mm/hr 0.30 in7.6 mm
01:28 PM 46.8°F8.2°C 44.8°F7.1°C 93% 4.9 mph SSE7.9 kmh SSE 11.7 mph18.8 kmh 29.07 in984.4 mb 0.01 in0.3 mm 0.00 in/hr0.0 mm/hr 0.30 in7.6 mm
01:23 PM 46.7°F8.2°C 44.7°F7.1°C 93% 7.0 mph S11.3 kmh S 12.1 mph19.5 kmh 29.07 in984.4 mb 0.01 in0.3 mm 0.00 in/hr0.0 mm/hr 0.30 in7.6 mm
01:18 PM 46.7°F8.2°C 44.7°F7.1°C 93% 6.0 mph SE9.7 kmh SE 12.1 mph19.5 kmh 29.08 in984.8 mb 0.01 in0.3 mm 0.00 in/hr0.0 mm/hr 0.30 in7.6 mm
01:12 PM 46.5°F8.1°C 44.5°F6.9°C 93% 5.1 mph SE8.2 kmh SE 10.5 mph16.9 kmh 29.08 in984.8 mb 0.01 in0.3 mm 0.00 in/hr0.0 mm/hr 0.30 in7.6 mm
01:08 PM 46.5°F8.1°C 44.5°F6.9°C 93% 4.7 mph SSE7.6 kmh SSE 8.6 mph13.8 kmh 29.08 in984.8 mb 0.01 in0.3 mm 0.00 in/hr0.0 mm/hr 0.30 in7.6 mm
01:02 PM 46.3°F7.9°C 44.3°F6.8°C 93% 4.7 mph SE7.6 kmh SE 14.2 mph22.9 kmh 29.09 in985.1 mb 0.01 in0.3 mm 0.00 in/hr0.0 mm/hr 0.30 in7.6 mm
12:57 PM 46.1°F7.8°C 44.1°F6.7°C 93% 4.1 mph SSE6.6 kmh SSE 14.2 mph22.9 kmh 29.09 in985.1 mb 0.01 in0.3 mm 0.00 in/hr0.0 mm/hr 0.30 in7.6 mm
12:52 PM 46.1°F7.8°C 44.4°F6.9°C 94% 7.4 mph SSE11.9 kmh SSE 11.7 mph18.8 kmh 29.10 in985.4 mb 0.01 in0.3 mm 0.12 in/hr3.0 mm/hr 0.30 in7.6 mm
12:47 PM 46.1°F7.8°C 44.1°F6.7°C 93% 7.0 mph S11.3 kmh S 13.3 mph21.4 kmh 29.10 in985.4 mb 0.00 in0.0 mm 0.00 in/hr0.0 mm/hr 0.29 in7.4 mm
12:42 PM 46.1°F7.8°C 44.1°F6.7°C 93% 6.5 mph SSE10.5 kmh SSE 13.3 mph21.4 kmh 29.10 in985.4 mb 0.02 in0.5 mm 0.00 in/hr0.0 mm/hr 0.29 in7.4 mm
12:37 PM 46.1°F7.8°C 44.1°F6.7°C 93% 7.5 mph SSE12.1 kmh SSE 13.3 mph21.4 kmh 29.11 in985.8 mb 0.02 in0.5 mm 0.00 in/hr0.0 mm/hr 0.29 in7.4 mm
12:32 PM 45.9°F7.7°C 43.9°F6.6°C 93% 4.5 mph SE7.2 kmh SE 13.3 mph21.4 kmh 29.10 in985.4 mb 0.04 in1.0 mm 0.00 in/hr0.0 mm/hr 0.29 in7.4 mm
12:27 PM 45.9°F7.7°C 44.2°F6.8°C 94% 7.5 mph S12.1 kmh S 12.1 mph19.5 kmh 29.11 in985.8 mb 0.05 in1.3 mm 0.00 in/hr0.0 mm/hr 0.29 in7.4 mm
12:22 PM 45.9°F7.7°C 44.2°F6.8°C 94% 6.4 mph S10.3 kmh S 14.9 mph24.0 kmh 29.12 in986.1 mb 0.05 in1.3 mm 0.00 in/hr0.0 mm/hr 0.29 in7.4 mm
12:17 PM 45.9°F7.7°C 44.2°F6.8°C 94% 6.7 mph SSE10.8 kmh SSE 14.9 mph24.0 kmh 29.12 in986.1 mb 0.07 in1.8 mm 0.00 in/hr0.0 mm/hr 0.29 in7.4 mm
12:12 PM 45.8°F7.7°C 43.8°F6.6°C 93% 8.1 mph SSE13.0 kmh SSE 12.9 mph20.8 kmh 29.12 in986.1 mb 0.07 in1.8 mm 0.00 in/hr0.0 mm/hr 0.29 in7.4 mm
12:07 PM 45.8°F7.7°C 44.1°F6.7°C 94% 7.8 mph SSE12.6 kmh SSE 13.3 mph21.4 kmh 29.13 in986.5 mb 0.07 in1.8 mm 0.00 in/hr0.0 mm/hr 0.29 in7.4 mm
12:02 PM 45.6°F7.6°C 43.9°F6.6°C 94% 8.5 mph SSE13.7 kmh SSE 13.3 mph21.4 kmh 29.13 in986.5 mb 0.07 in1.8 mm 0.00 in/hr0.0 mm/hr 0.29 in7.4 mm
11:57 AM 45.4°F7.4°C 43.7°F6.5°C 94% 6.0 mph S9.7 kmh S 13.3 mph21.4 kmh 29.13 in986.5 mb 0.07 in1.8 mm 0.00 in/hr0.0 mm/hr 0.29 in7.4 mm
11:52 AM 45.4°F7.4°C 43.7°F6.5°C 94% 4.9 mph S7.9 kmh S 13.3 mph21.4 kmh 29.14 in986.8 mb 0.07 in1.8 mm 0.00 in/hr0.0 mm/hr 0.29 in7.4 mm
11:47 AM 45.2°F7.3°C 43.5°F6.4°C 94% 6.2 mph S10.0 kmh S 11.0 mph17.7 kmh 29.14 in986.8 mb 0.07 in1.8 mm 0.30 in/hr7.6 mm/hr 0.29 in7.4 mm
11:41 AM 45.0°F7.2°C 43.3°F6.3°C 94% 2.9 mph S4.7 kmh S 11.7 mph18.8 kmh 29.15 in987.1 mb 0.04 in1.0 mm 0.00 in/hr0.0 mm/hr 0.26 in6.6 mm
11:36 AM 45.0°F7.2°C 43.3°F6.3°C 94% 7.4 mph SSE11.9 kmh SSE 12.1 mph19.5 kmh 29.15 in987.1 mb 0.04 in1.0 mm 0.24 in/hr6.1 mm/hr 0.26 in6.6 mm
11:31 AM 45.0°F7.2°C 43.3°F6.3°C 94% 5.9 mph S9.5 kmh S 14.2 mph22.9 kmh 29.16 in987.5 mb 0.02 in0.5 mm 0.12 in/hr3.0 mm/hr 0.24 in6.1 mm
11:26 AM 45.0°F7.2°C 43.3°F6.3°C 94% 7.0 mph SSE11.3 kmh SSE 15.2 mph24.5 kmh 29.17 in987.8 mb 0.01 in0.3 mm 0.00 in/hr0.0 mm/hr 0.23 in5.8 mm
11:21 AM 45.0°F7.2°C 43.3°F6.3°C 94% 8.8 mph SSE14.2 kmh SSE 15.2 mph24.5 kmh 29.17 in987.8 mb 0.01 in0.3 mm 0.12 in/hr3.0 mm/hr 0.23 in5.8 mm
11:16 AM 45.0°F7.2°C 43.3°F6.3°C 94% 4.3 mph SE6.9 kmh SE 14.9 mph24.0 kmh 29.17 in987.8 mb 0.00 in0.0 mm 0.00 in/hr0.0 mm/hr 0.22 in5.6 mm
11:11 AM 45.0°F7.2°C 43.3°F6.3°C 94% 9.1 mph SSE14.6 kmh SSE 14.9 mph24.0 kmh 29.17 in987.8 mb 0.02 in0.5 mm 0.00 in/hr0.0 mm/hr 0.22 in5.6 mm
11:06 AM 45.0°F7.2°C 43.3°F6.3°C 94% 8.9 mph S14.3 kmh S 17.7 mph28.5 kmh 29.18 in988.1 mb 0.02 in0.5 mm 0.00 in/hr0.0 mm/hr 0.22 in5.6 mm
11:01 AM 45.0°F7.2°C 43.3°F6.3°C 94% 8.4 mph SE13.5 kmh SE 17.7 mph28.5 kmh 29.18 in988.1 mb 0.02 in0.5 mm 0.00 in/hr0.0 mm/hr 0.22 in5.6 mm
10:56 AM 44.9°F7.2°C 43.2°F6.2°C 94% 5.9 mph SE9.5 kmh SE 13.3 mph21.4 kmh 29.19 in988.5 mb 0.02 in0.5 mm 0.00 in/hr0.0 mm/hr 0.22 in5.6 mm
10:51 AM 44.9°F7.2°C 43.2°F6.2°C 94% 8.3 mph S13.4 kmh S 18.4 mph29.6 kmh 29.19 in988.5 mb 0.03 in0.8 mm 0.00 in/hr0.0 mm/hr 0.22 in5.6 mm
10:46 AM 44.7°F7.1°C 42.8°F6.0°C 93% 7.8 mph S12.6 kmh S 18.4 mph29.6 kmh 29.20 in988.8 mb 0.05 in1.3 mm 0.00 in/hr0.0 mm/hr 0.22 in5.6 mm
10:41 AM 44.7°F7.1°C 42.8°F6.0°C 93% 6.5 mph SSE10.5 kmh SSE 10.5 mph16.9 kmh 29.20 in988.8 mb 0.08 in2.0 mm 0.00 in/hr0.0 mm/hr 0.22 in5.6 mm
10:36 AM 44.9°F7.2°C 43.2°F6.2°C 94% 7.3 mph SSE11.7 kmh SSE 10.5 mph16.9 kmh 29.20 in988.8 mb 0.08 in2.0 mm 0.00 in/hr0.0 mm/hr 0.22 in5.6 mm
10:31 AM 44.9°F7.2°C 43.0°F6.1°C 93% 7.2 mph S11.6 kmh S 12.6 mph20.3 kmh 29.20 in988.8 mb 0.08 in2.0 mm 0.00 in/hr0.0 mm/hr 0.22 in5.6 mm
10:26 AM 45.0°F7.2°C 43.1°F6.2°C 93% 5.0 mph SSE8.0 kmh SSE 14.9 mph24.0 kmh 29.21 in989.2 mb 0.10 in2.5 mm 0.00 in/hr0.0 mm/hr 0.22 in5.6 mm
10:21 AM 45.0°F7.2°C 43.3°F6.3°C 94% 4.5 mph S7.2 kmh S 14.9 mph24.0 kmh 29.21 in989.2 mb 0.10 in2.5 mm 0.00 in/hr0.0 mm/hr 0.22 in5.6 mm
10:16 AM 44.9°F7.2°C 43.0°F6.1°C 93% 6.5 mph SSE10.5 kmh SSE 14.9 mph24.0 kmh 29.22 in989.5 mb 0.12 in3.0 mm 0.00 in/hr0.0 mm/hr 0.22 in5.6 mm
10:11 AM 44.9°F7.2°C 43.0°F6.1°C 93% 8.9 mph S14.3 kmh S 14.9 mph24.0 kmh 29.22 in989.5 mb 0.12 in3.0 mm 0.00 in/hr0.0 mm/hr 0.20 in5.1 mm
10:06 AM 44.7°F7.1°C 42.8°F6.0°C 93% 9.1 mph S14.6 kmh S 12.9 mph20.8 kmh 29.22 in989.5 mb 0.12 in3.0 mm 0.00 in/hr0.0 mm/hr 0.20 in5.1 mm
10:01 AM 44.7°F7.1°C 42.8°F6.0°C 93% 7.5 mph S12.1 kmh S 17.1 mph27.5 kmh 29.22 in989.5 mb 0.12 in3.0 mm 0.00 in/hr0.0 mm/hr 0.20 in5.1 mm
09:56 AM 44.5°F6.9°C 42.6°F5.9°C 93% 7.7 mph S12.4 kmh S 17.1 mph27.5 kmh 29.22 in989.5 mb 0.12 in3.0 mm 0.12 in/hr3.0 mm/hr 0.20 in5.1 mm
09:51 AM 44.5°F6.9°C 42.6°F5.9°C 93% 8.0 mph S12.9 kmh S 12.1 mph19.5 kmh 29.23 in989.8 mb 0.11 in2.8 mm 0.24 in/hr6.1 mm/hr 0.19 in4.8 mm
09:46 AM 44.3°F6.8°C 42.1°F5.6°C 92% 7.2 mph S11.6 kmh S 12.6 mph20.3 kmh 29.23 in989.8 mb 0.09 in2.3 mm 0.24 in/hr6.1 mm/hr 0.17 in4.3 mm
09:41 AM 44.3°F6.8°C 42.1°F5.6°C 92% 7.0 mph S11.3 kmh S 12.6 mph20.3 kmh 29.23 in989.8 mb 0.07 in1.8 mm 0.00 in/hr0.0 mm/hr 0.14 in3.6 mm
09:36 AM 44.1°F6.7°C 41.9°F5.5°C 92% 7.9 mph S12.7 kmh S 12.6 mph20.3 kmh 29.23 in989.8 mb 0.07 in1.8 mm 0.00 in/hr0.0 mm/hr 0.14 in3.6 mm
09:31 AM 44.1°F6.7°C 41.9°F5.5°C 92% 6.0 mph S9.7 kmh S 10.2 mph16.4 kmh 29.23 in989.8 mb 0.07 in1.8 mm 0.24 in/hr6.1 mm/hr 0.14 in3.6 mm
09:26 AM 44.1°F6.7°C 41.6°F5.3°C 91% 6.9 mph SSE11.1 kmh SSE 10.2 mph16.4 kmh 29.24 in990.2 mb 0.05 in1.3 mm 0.00 in/hr0.0 mm/hr 0.12 in3.0 mm
09:21 AM 44.3°F6.8°C 41.8°F5.4°C 91% 5.2 mph SSE8.4 kmh SSE 8.6 mph13.8 kmh 29.23 in989.8 mb 0.05 in1.3 mm 0.24 in/hr6.1 mm/hr 0.12 in3.0 mm
09:16 AM 44.3°F6.8°C 41.8°F5.4°C 91% 4.9 mph SE7.9 kmh SE 8.6 mph13.8 kmh 29.24 in990.2 mb 0.03 in0.8 mm 0.24 in/hr6.1 mm/hr 0.10 in2.5 mm
09:11 AM 44.5°F6.9°C 42.3°F5.7°C 92% 3.3 mph SSE5.3 kmh SSE 13.7 mph22.0 kmh 29.24 in990.2 mb 0.01 in0.3 mm 0.00 in/hr0.0 mm/hr 0.08 in2.0 mm
09:06 AM 44.5°F6.9°C 42.3°F5.7°C 92% 8.5 mph SSE13.7 kmh SSE 13.7 mph22.0 kmh 29.24 in990.2 mb 0.01 in0.3 mm 0.00 in/hr0.0 mm/hr 0.08 in2.0 mm
09:01 AM 44.7°F7.1°C 42.5°F5.8°C 92% 4.6 mph SSE7.4 kmh SSE 11.7 mph18.8 kmh 29.24 in990.2 mb 0.01 in0.3 mm 0.00 in/hr0.0 mm/hr 0.08 in2.0 mm
08:56 AM 44.7°F7.1°C 42.8°F6.0°C 93% 6.9 mph SSE11.1 kmh SSE 12.1 mph19.5 kmh 29.24 in990.2 mb 0.01 in0.3 mm 0.00 in/hr0.0 mm/hr 0.08 in2.0 mm
08:51 AM 44.5°F6.9°C 42.6°F5.9°C 93% 7.6 mph SSE12.2 kmh SSE 12.1 mph19.5 kmh 29.25 in990.5 mb 0.02 in0.5 mm 0.00 in/hr0.0 mm/hr 0.08 in2.0 mm
08:46 AM 44.5°F6.9°C 42.6°F5.9°C 93% 6.3 mph S10.1 kmh S 13.3 mph21.4 kmh 29.25 in990.5 mb 0.03 in0.8 mm 0.00 in/hr0.0 mm/hr 0.08 in2.0 mm
08:41 AM 44.5°F6.9°C 42.6°F5.9°C 93% 6.2 mph S10.0 kmh S 13.3 mph21.4 kmh 29.25 in990.5 mb 0.03 in0.8 mm 0.00 in/hr0.0 mm/hr 0.08 in2.0 mm
08:36 AM 44.5°F6.9°C 42.6°F5.9°C 93% 7.1 mph S11.4 kmh S 13.3 mph21.4 kmh 29.25 in990.5 mb 0.08 in2.0 mm 0.00 in/hr0.0 mm/hr 0.08 in2.0 mm
08:31 AM 44.7°F7.1°C 42.8°F6.0°C 93% 7.6 mph S12.2 kmh S 12.1 mph19.5 kmh 29.25 in990.5 mb 0.08 in2.0 mm 0.12 in/hr3.0 mm/hr 0.08 in2.0 mm
08:26 AM 44.7°F7.1°C 42.8°F6.0°C 93% 7.6 mph S12.2 kmh S 12.1 mph19.5 kmh 29.25 in990.5 mb 0.07 in1.8 mm 0.00 in/hr0.0 mm/hr 0.07 in1.8 mm
08:21 AM 44.7°F7.1°C 42.8°F6.0°C 93% 5.5 mph S8.9 kmh S 14.5 mph23.3 kmh 29.25 in990.5 mb 0.07 in1.8 mm 0.00 in/hr0.0 mm/hr 0.07 in1.8 mm
08:16 AM 44.7°F7.1°C 42.8°F6.0°C 93% 8.1 mph S13.0 kmh S 14.5 mph23.3 kmh 29.25 in990.5 mb 0.07 in1.8 mm 0.00 in/hr0.0 mm/hr 0.07 in1.8 mm
08:11 AM 44.9°F7.2°C 43.0°F6.1°C 93% 6.8 mph S10.9 kmh S 13.3 mph21.4 kmh 29.26 in990.9 mb 0.07 in1.8 mm 0.00 in/hr0.0 mm/hr 0.07 in1.8 mm
08:06 AM 44.9°F7.2°C 43.0°F6.1°C 93% 7.1 mph S11.4 kmh S 13.3 mph21.4 kmh 29.26 in990.9 mb 0.07 in1.8 mm 0.00 in/hr0.0 mm/hr 0.07 in1.8 mm
08:01 AM 45.0°F7.2°C 43.1°F6.2°C 93% 6.8 mph SE10.9 kmh SE 12.1 mph19.5 kmh 29.26 in990.9 mb 0.07 in1.8 mm 0.00 in/hr0.0 mm/hr 0.07 in1.8 mm
07:56 AM 45.0°F7.2°C 43.1°F6.2°C 93% 6.6 mph S10.6 kmh S 12.1 mph19.5 kmh 29.26 in990.9 mb 0.07 in1.8 mm 0.12 in/hr3.0 mm/hr 0.07 in1.8 mm
07:51 AM 45.0°F7.2°C 43.1°F6.2°C 93% 7.1 mph S11.4 kmh S 13.7 mph22.0 kmh 29.26 in990.9 mb 0.06 in1.5 mm 0.24 in/hr6.1 mm/hr 0.06 in1.5 mm
07:46 AM 45.2°F7.3°C 43.3°F6.3°C 93% 8.0 mph S12.9 kmh S 16.1 mph25.9 kmh 29.26 in990.9 mb 0.04 in1.0 mm 0.00 in/hr0.0 mm/hr 0.04 in1.0 mm
07:41 AM 45.4°F7.4°C 43.4°F6.3°C 93% 6.3 mph S10.1 kmh S 16.1 mph25.9 kmh 29.27 in991.2 mb 0.04 in1.0 mm 0.48 in/hr12.2 mm/hr 0.04 in1.0 mm
07:36 AM 45.4°F7.4°C 43.4°F6.3°C 93% 8.4 mph S13.5 kmh S 14.2 mph22.9 kmh 29.27 in991.2 mb 0.00 in0.0 mm 0.00 in/hr0.0 mm/hr 0.00 in0.0 mm
07:31 AM 45.4°F7.4°C 43.4°F6.3°C 93% 6.4 mph S10.3 kmh S 13.3 mph21.4 kmh 29.27 in991.2 mb 0.00 in0.0 mm 0.00 in/hr0.0 mm/hr 0.00 in0.0 mm
07:26 AM 45.6°F7.6°C 43.6°F6.4°C 93% 7.7 mph S12.4 kmh S 14.2 mph22.9 kmh 29.27 in991.2 mb 0.00 in0.0 mm 0.00 in/hr0.0 mm/hr 0.00 in0.0 mm
07:21 AM 45.6°F7.6°C 43.6°F6.4°C 93% 8.2 mph S13.2 kmh S 16.4 mph26.4 kmh 29.27 in991.2 mb 0.00 in0.0 mm 0.00 in/hr0.0 mm/hr 0.00 in0.0 mm
07:16 AM 45.8°F7.7°C 43.8°F6.6°C 93% 10.4 mph S16.7 kmh S 16.4 mph26.4 kmh 29.27 in991.2 mb 0.00 in0.0 mm 0.00 in/hr0.0 mm/hr 0.00 in0.0 mm
07:11 AM 45.8°F7.7°C 43.8°F6.6°C 93% 8.9 mph S14.3 kmh S 13.3 mph21.4 kmh 29.27 in991.2 mb 0.00 in0.0 mm 0.00 in/hr0.0 mm/hr 0.00 in0.0 mm
07:06 AM 45.8°F7.7°C 43.8°F6.6°C 93% 8.5 mph SSE13.7 kmh SSE 12.6 mph20.3 kmh 29.27 in991.2 mb 0.00 in0.0 mm 0.00 in/hr0.0 mm/hr 0.00 in0.0 mm
07:01 AM 45.8°F7.7°C 43.8°F6.6°C 93% 6.1 mph S9.8 kmh S 12.6 mph20.3 kmh 29.27 in991.2 mb 0.00 in0.0 mm 0.00 in/hr0.0 mm/hr 0.00 in0.0 mm
06:56 AM 45.9°F7.7°C 43.9°F6.6°C 93% 4.7 mph S7.6 kmh S 18.0 mph29.0 kmh 29.26 in990.9 mb 0.00 in0.0 mm 0.00 in/hr0.0 mm/hr 0.00 in0.0 mm
06:51 AM 45.9°F7.7°C 43.9°F6.6°C 93% 8.3 mph S13.4 kmh S 18.0 mph29.0 kmh 29.26 in990.9 mb 0.00 in0.0 mm 0.00 in/hr0.0 mm/hr 0.00 in0.0 mm
06:46 AM 46.1°F7.8°C 44.1°F6.7°C 93% 8.3 mph S13.4 kmh S 13.3 mph21.4 kmh 29.27 in991.2 mb 0.00 in0.0 mm 0.00 in/hr0.0 mm/hr 0.00 in0.0 mm
06:41 AM 46.3°F7.9°C 44.3°F6.8°C 93% 7.3 mph S11.7 kmh S 13.3 mph21.4 kmh 29.26 in990.9 mb 0.00 in0.0 mm 0.00 in/hr0.0 mm/hr 0.00 in0.0 mm
06:36 AM 46.3°F7.9°C 44.3°F6.8°C 93% 7.9 mph S12.7 kmh S 15.6 mph25.1 kmh 29.27 in991.2 mb 0.00 in0.0 mm 0.00 in/hr0.0 mm/hr 0.00 in0.0 mm
06:31 AM 46.5°F8.1°C 44.5°F6.9°C 93% 9.3 mph S15.0 kmh S 15.6 mph25.1 kmh 29.26 in990.9 mb 0.00 in0.0 mm 0.00 in/hr0.0 mm/hr 0.00 in0.0 mm
06:26 AM 46.5°F8.1°C 44.5°F6.9°C 93% 3.9 mph S6.3 kmh S 11.7 mph18.8 kmh 29.26 in990.9 mb 0.00 in0.0 mm 0.00 in/hr0.0 mm/hr 0.00 in0.0 mm
06:21 AM 46.7°F8.2°C 44.7°F7.1°C 93% 7.0 mph SSE11.3 kmh SSE 10.5 mph16.9 kmh 29.26 in990.9 mb 0.00 in0.0 mm 0.00 in/hr0.0 mm/hr 0.00 in0.0 mm
06:16 AM 46.8°F8.2°C 44.8°F7.1°C 93% 6.0 mph S9.7 kmh S 11.0 mph17.7 kmh 29.26 in990.9 mb 0.00 in0.0 mm 0.00 in/hr0.0 mm/hr 0.00 in0.0 mm
06:11 AM 46.8°F8.2°C 44.8°F7.1°C 93% 5.9 mph S9.5 kmh S 11.0 mph17.7 kmh 29.26 in990.9 mb 0.00 in0.0 mm 0.00 in/hr0.0 mm/hr 0.00 in0.0 mm
06:06 AM 46.9°F8.3°C 45.0°F7.2°C 93% 4.4 mph S7.1 kmh S 11.4 mph18.3 kmh 29.26 in990.9 mb 0.00 in0.0 mm 0.00 in/hr0.0 mm/hr 0.00 in0.0 mm
06:01 AM 47.1°F8.4°C 45.2°F7.3°C 93% 7.1 mph S11.4 kmh S 11.4 mph18.3 kmh 29.26 in990.9 mb 0.00 in0.0 mm 0.00 in/hr0.0 mm/hr 0.00 in0.0 mm
05:56 AM 47.1°F8.4°C 45.2°F7.3°C 93% 5.9 mph S9.5 kmh S 10.2 mph16.4 kmh 29.26 in990.9 mb 0.00 in0.0 mm 0.00 in/hr0.0 mm/hr 0.00 in0.0 mm
05:51 AM 47.1°F8.4°C 45.2°F7.3°C 93% 4.0 mph S6.4 kmh S 11.0 mph17.7 kmh 29.26 in990.9 mb 0.00 in0.0 mm 0.00 in/hr0.0 mm/hr 0.00 in0.0 mm
05:46 AM 47.1°F8.4°C 45.2°F7.3°C 93% 7.9 mph S12.7 kmh S 12.1 mph19.5 kmh 29.26 in990.9 mb 0.00 in0.0 mm 0.00 in/hr0.0 mm/hr 0.00 in0.0 mm
05:41 AM 47.1°F8.4°C 45.2°F7.3°C 93% 6.0 mph S9.7 kmh S 13.3 mph21.4 kmh 29.26 in990.9 mb 0.00 in0.0 mm 0.00 in/hr0.0 mm/hr 0.00 in0.0 mm
05:36 AM 47.1°F8.4°C 45.2°F7.3°C 93% 6.9 mph SSE11.1 kmh SSE 13.3 mph21.4 kmh 29.26 in990.9 mb 0.00 in0.0 mm 0.00 in/hr0.0 mm/hr 0.00 in0.0 mm
05:31 AM 47.3°F8.5°C 45.4°F7.4°C 93% 5.5 mph S8.9 kmh S 11.7 mph18.8 kmh 29.26 in990.9 mb 0.00 in0.0 mm 0.00 in/hr0.0 mm/hr 0.00 in0.0 mm
05:26 AM 47.3°F8.5°C 45.4°F7.4°C 93% 4.0 mph S6.4 kmh S 12.9 mph20.8 kmh 29.26 in990.9 mb 0.00 in0.0 mm 0.00 in/hr0.0 mm/hr 0.00 in0.0 mm
05:21 AM 47.3°F8.5°C 45.4°F7.4°C 93% 8.3 mph S13.4 kmh S 12.9 mph20.8 kmh 29.26 in990.9 mb 0.00 in0.0 mm 0.00 in/hr0.0 mm/hr 0.00 in0.0 mm
05:16 AM 47.3°F8.5°C 45.4°F7.4°C 93% 4.2 mph S6.8 kmh S 13.7 mph22.0 kmh 29.26 in990.9 mb 0.00 in0.0 mm 0.00 in/hr0.0 mm/hr 0.00 in0.0 mm
05:11 AM 47.3°F8.5°C 45.4°F7.4°C 93% 5.7 mph S9.2 kmh S 13.7 mph22.0 kmh 29.27 in991.2 mb 0.00 in0.0 mm 0.00 in/hr0.0 mm/hr 0.00 in0.0 mm
05:06 AM 47.3°F8.5°C 45.4°F7.4°C 93% 6.7 mph S10.8 kmh S 11.4 mph18.3 kmh 29.27 in991.2 mb 0.00 in0.0 mm 0.00 in/hr0.0 mm/hr 0.00 in0.0 mm
05:01 AM 47.3°F8.5°C 45.4°F7.4°C 93% 5.3 mph S8.5 kmh S 11.7 mph18.8 kmh 29.27 in991.2 mb 0.00 in0.0 mm 0.00 in/hr0.0 mm/hr 0.00 in0.0 mm
04:56 AM 47.3°F8.5°C 45.4°F7.4°C 93% 5.2 mph S8.4 kmh S 11.7 mph18.8 kmh 29.27 in991.2 mb 0.00 in0.0 mm 0.00 in/hr0.0 mm/hr 0.00 in0.0 mm
04:51 AM 47.3°F8.5°C 45.4°F7.4°C 93% 5.5 mph S8.9 kmh S 10.5 mph16.9 kmh 29.27 in991.2 mb 0.00 in0.0 mm 0.00 in/hr0.0 mm/hr 0.00 in0.0 mm
04:46 AM 47.3°F8.5°C 45.4°F7.4°C 93% 4.8 mph S7.7 kmh S 10.5 mph16.9 kmh 29.27 in991.2 mb 0.00 in0.0 mm 0.00 in/hr0.0 mm/hr 0.00 in0.0 mm
04:41 AM 47.5°F8.6°C 45.6°F7.6°C 93% 3.9 mph S6.3 kmh S 14.2 mph22.9 kmh 29.27 in991.2 mb 0.00 in0.0 mm 0.00 in/hr0.0 mm/hr 0.00 in0.0 mm
04:36 AM 47.5°F8.6°C 45.6°F7.6°C 93% 6.8 mph SSE10.9 kmh SSE 14.2 mph22.9 kmh 29.27 in991.2 mb 0.00 in0.0 mm 0.00 in/hr0.0 mm/hr 0.00 in0.0 mm
04:31 AM 47.5°F8.6°C 45.6°F7.6°C 93% 7.0 mph S11.3 kmh S 14.2 mph22.9 kmh 29.27 in991.2 mb 0.00 in0.0 mm 0.00 in/hr0.0 mm/hr 0.00 in0.0 mm
04:25 AM 47.5°F8.6°C 45.6°F7.6°C 93% 6.8 mph S10.9 kmh S 11.4 mph18.3 kmh 29.28 in991.5 mb 0.00 in0.0 mm 0.00 in/hr0.0 mm/hr 0.00 in0.0 mm
04:21 AM 47.6°F8.7°C 45.7°F7.6°C 93% 7.5 mph S12.1 kmh S 12.1 mph19.5 kmh 29.28 in991.5 mb 0.00 in0.0 mm 0.00 in/hr0.0 mm/hr 0.00 in0.0 mm
04:15 AM 47.6°F8.7°C 45.7°F7.6°C 93% 6.4 mph S10.3 kmh S 12.1 mph19.5 kmh 29.28 in991.5 mb 0.00 in0.0 mm 0.00 in/hr0.0 mm/hr 0.00 in0.0 mm
04:10 AM 47.6°F8.7°C 45.7°F7.6°C 93% 5.9 mph S9.5 kmh S 11.0 mph17.7 kmh 29.28 in991.5 mb 0.00 in0.0 mm 0.00 in/hr0.0 mm/hr 0.00 in0.0 mm
04:05 AM 47.6°F8.7°C 45.7°F7.6°C 93% 7.5 mph SSW12.1 kmh SSW 11.0 mph17.7 kmh 29.28 in991.5 mb 0.00 in0.0 mm 0.00 in/hr0.0 mm/hr 0.00 in0.0 mm
04:00 AM 47.5°F8.6°C 45.6°F7.6°C 93% 6.4 mph S10.3 kmh S 12.1 mph19.5 kmh 29.28 in991.5 mb 0.00 in0.0 mm 0.00 in/hr0.0 mm/hr 0.00 in0.0 mm
03:55 AM 47.5°F8.6°C 45.6°F7.6°C 93% 6.5 mph S10.5 kmh S 13.3 mph21.4 kmh 29.28 in991.5 mb 0.00 in0.0 mm 0.00 in/hr0.0 mm/hr 0.00 in0.0 mm
03:50 AM 47.5°F8.6°C 45.6°F7.6°C 93% 7.0 mph S11.3 kmh S 13.3 mph21.4 kmh 29.28 in991.5 mb 0.00 in0.0 mm 0.00 in/hr0.0 mm/hr 0.00 in0.0 mm
03:45 AM 47.5°F8.6°C 45.6°F7.6°C 93% 8.4 mph S13.5 kmh S 13.7 mph22.0 kmh 29.28 in991.5 mb 0.00 in0.0 mm 0.00 in/hr0.0 mm/hr 0.00 in0.0 mm
03:40 AM 47.5°F8.6°C 45.6°F7.6°C 93% 6.3 mph S10.1 kmh S 13.7 mph22.0 kmh 29.28 in991.5 mb 0.00 in0.0 mm 0.00 in/hr0.0 mm/hr 0.00 in0.0 mm
03:35 AM 47.6°F8.7°C 45.7°F7.6°C 93% 4.6 mph S7.4 kmh S 12.6 mph20.3 kmh 29.28 in991.5 mb 0.00 in0.0 mm 0.00 in/hr0.0 mm/hr 0.00 in0.0 mm
03:30 AM 47.6°F8.7°C 45.7°F7.6°C 93% 7.6 mph S12.2 kmh S 13.3 mph21.4 kmh 29.28 in991.5 mb 0.00 in0.0 mm 0.00 in/hr0.0 mm/hr 0.00 in0.0 mm
03:25 AM 47.6°F8.7°C 45.7°F7.6°C 93% 4.8 mph S7.7 kmh S 13.3 mph21.4 kmh 29.29 in991.9 mb 0.00 in0.0 mm 0.00 in/hr0.0 mm/hr 0.00 in0.0 mm
03:20 AM 47.5°F8.6°C 45.6°F7.6°C 93% 5.2 mph S8.4 kmh S 15.2 mph24.5 kmh 29.29 in991.9 mb 0.00 in0.0 mm 0.00 in/hr0.0 mm/hr 0.00 in0.0 mm
03:15 AM 47.5°F8.6°C 45.6°F7.6°C 93% 6.1 mph S9.8 kmh S 15.2 mph24.5 kmh 29.29 in991.9 mb 0.00 in0.0 mm 0.00 in/hr0.0 mm/hr 0.00 in0.0 mm
03:10 AM 47.5°F8.6°C 45.6°F7.6°C 93% 8.3 mph SSE13.4 kmh SSE 13.7 mph22.0 kmh 29.29 in991.9 mb 0.00 in0.0 mm 0.00 in/hr0.0 mm/hr 0.00 in0.0 mm
03:05 AM 47.5°F8.6°C 45.6°F7.6°C 93% 9.5 mph S15.3 kmh S 13.7 mph22.0 kmh 29.30 in992.2 mb 0.00 in0.0 mm 0.00 in/hr0.0 mm/hr 0.00 in0.0 mm
03:00 AM 47.3°F8.5°C 45.4°F7.4°C 93% 5.7 mph S9.2 kmh S 11.7 mph18.8 kmh 29.30 in992.2 mb 0.00 in0.0 mm 0.00 in/hr0.0 mm/hr 0.00 in0.0 mm
02:55 AM 47.3°F8.5°C 45.4°F7.4°C 93% 6.8 mph SSW10.9 kmh SSW 15.2 mph24.5 kmh 29.30 in992.2 mb 0.00 in0.0 mm 0.00 in/hr0.0 mm/hr 0.00 in0.0 mm
02:50 AM 47.3°F8.5°C 45.4°F7.4°C 93% 6.0 mph S9.7 kmh S 15.2 mph24.5 kmh 29.30 in992.2 mb 0.00 in0.0 mm 0.00 in/hr0.0 mm/hr 0.00 in0.0 mm
02:45 AM 47.3°F8.5°C 45.4°F7.4°C 93% 6.1 mph S9.8 kmh S 14.9 mph24.0 kmh 29.30 in992.2 mb 0.00 in0.0 mm 0.00 in/hr0.0 mm/hr 0.00 in0.0 mm
02:40 AM 47.3°F8.5°C 45.1°F7.3°C 92% 9.0 mph S14.5 kmh S 14.9 mph24.0 kmh 29.31 in992.6 mb 0.00 in0.0 mm 0.00 in/hr0.0 mm/hr 0.00 in0.0 mm
02:35 AM 47.1°F8.4°C 44.9°F7.2°C 92% 7.4 mph S11.9 kmh S 16.4 mph26.4 kmh 29.31 in992.6 mb 0.00 in0.0 mm 0.00 in/hr0.0 mm/hr 0.00 in0.0 mm
02:30 AM 47.1°F8.4°C 44.9°F7.2°C 92% 7.5 mph S12.1 kmh S 17.1 mph27.5 kmh 29.31 in992.6 mb 0.00 in0.0 mm 0.00 in/hr0.0 mm/hr 0.00 in0.0 mm
02:25 AM 47.1°F8.4°C 44.9°F7.2°C 92% 9.2 mph S14.8 kmh S 17.1 mph27.5 kmh 29.32 in992.9 mb 0.00 in0.0 mm 0.00 in/hr0.0 mm/hr 0.00 in0.0 mm
02:20 AM 47.1°F8.4°C 44.9°F7.2°C 92% 6.0 mph S9.7 kmh S 14.9 mph24.0 kmh 29.32 in992.9 mb 0.00 in0.0 mm 0.00 in/hr0.0 mm/hr 0.00 in0.0 mm
02:15 AM 46.9°F8.3°C 44.7°F7.1°C 92% 8.2 mph S13.2 kmh S 14.9 mph24.0 kmh 29.32 in992.9 mb 0.00 in0.0 mm 0.00 in/hr0.0 mm/hr 0.00 in0.0 mm
02:10 AM 46.9°F8.3°C 44.7°F7.1°C 92% 6.9 mph S11.1 kmh S 13.3 mph21.4 kmh 29.32 in992.9 mb 0.00 in0.0 mm 0.00 in/hr0.0 mm/hr 0.00 in0.0 mm
02:05 AM 46.9°F8.3°C 44.7°F7.1°C 92% 7.9 mph S12.7 kmh S 12.9 mph20.8 kmh 29.32 in992.9 mb 0.00 in0.0 mm 0.00 in/hr0.0 mm/hr 0.00 in0.0 mm
02:00 AM 46.9°F8.3°C 44.7°F7.1°C 92% 7.4 mph S11.9 kmh S 13.3 mph21.4 kmh 29.32 in992.9 mb 0.00 in0.0 mm 0.00 in/hr0.0 mm/hr 0.00 in0.0 mm
01:55 AM 46.9°F8.3°C 44.7°F7.1°C 92% 5.3 mph S8.5 kmh S 14.9 mph24.0 kmh 29.32 in992.9 mb 0.00 in0.0 mm 0.00 in/hr0.0 mm/hr 0.00 in0.0 mm
01:50 AM 46.9°F8.3°C 44.7°F7.1°C 92% 7.4 mph S11.9 kmh S 14.9 mph24.0 kmh 29.33 in993.2 mb 0.00 in0.0 mm 0.00 in/hr0.0 mm/hr 0.00 in0.0 mm
01:45 AM 46.9°F8.3°C 44.4°F6.9°C 91% 7.8 mph S12.6 kmh S 13.3 mph21.4 kmh 29.33 in993.2 mb 0.00 in0.0 mm 0.00 in/hr0.0 mm/hr 0.00 in0.0 mm
01:40 AM 46.9°F8.3°C 44.4°F6.9°C 91% 7.0 mph S11.3 kmh S 12.1 mph19.5 kmh 29.33 in993.2 mb 0.00 in0.0 mm 0.00 in/hr0.0 mm/hr 0.00 in0.0 mm
01:35 AM 46.9°F8.3°C 44.4°F6.9°C 91% 7.6 mph S12.2 kmh S 12.1 mph19.5 kmh 29.33 in993.2 mb 0.00 in0.0 mm 0.00 in/hr0.0 mm/hr 0.00 in0.0 mm
01:30 AM 46.9°F8.3°C 44.4°F6.9°C 91% 6.5 mph S10.5 kmh S 13.3 mph21.4 kmh 29.33 in993.2 mb 0.00 in0.0 mm 0.00 in/hr0.0 mm/hr 0.00 in0.0 mm
01:25 AM 46.9°F8.3°C 44.4°F6.9°C 91% 6.7 mph S10.8 kmh S 16.1 mph25.9 kmh 29.33 in993.2 mb 0.00 in0.0 mm 0.00 in/hr0.0 mm/hr 0.00 in0.0 mm
01:20 AM 46.9°F8.3°C 44.4°F6.9°C 91% 8.6 mph S13.8 kmh S 16.1 mph25.9 kmh 29.33 in993.2 mb 0.00 in0.0 mm 0.00 in/hr0.0 mm/hr 0.00 in0.0 mm
01:15 AM 46.9°F8.3°C 44.4°F6.9°C 91% 6.5 mph S10.5 kmh S 12.6 mph20.3 kmh 29.33 in993.2 mb 0.00 in0.0 mm 0.00 in/hr0.0 mm/hr 0.00 in0.0 mm
01:10 AM 47.1°F8.4°C 44.6°F7.0°C 91% 7.8 mph S12.6 kmh S 11.7 mph18.8 kmh 29.33 in993.2 mb 0.00 in0.0 mm 0.00 in/hr0.0 mm/hr 0.00 in0.0 mm
01:05 AM 47.1°F8.4°C 44.6°F7.0°C 91% 7.1 mph S11.4 kmh S 11.7 mph18.8 kmh 29.34 in993.6 mb 0.00 in0.0 mm 0.00 in/hr0.0 mm/hr 0.00 in0.0 mm
01:00 AM 47.1°F8.4°C 44.6°F7.0°C 91% 6.2 mph S10.0 kmh S 11.0 mph17.7 kmh 29.34 in993.6 mb 0.00 in0.0 mm 0.00 in/hr0.0 mm/hr 0.00 in0.0 mm
12:55 AM 47.3°F8.5°C 44.8°F7.1°C 91% 6.5 mph S10.5 kmh S 12.1 mph19.5 kmh 29.34 in993.6 mb 0.00 in0.0 mm 0.00 in/hr0.0 mm/hr 0.00 in0.0 mm
12:50 AM 47.5°F8.6°C 45.0°F7.2°C 91% 5.2 mph SW8.4 kmh SW 12.1 mph19.5 kmh 29.35 in993.9 mb 0.00 in0.0 mm 0.00 in/hr0.0 mm/hr 0.00 in0.0 mm
12:45 AM 47.5°F8.6°C 45.0°F7.2°C 91% 6.2 mph S10.0 kmh S 13.3 mph21.4 kmh 29.34 in993.6 mb 0.00 in0.0 mm 0.00 in/hr0.0 mm/hr 0.00 in0.0 mm
12:40 AM 47.5°F8.6°C 45.0°F7.2°C 91% 8.1 mph SSW13.0 kmh SSW 16.1 mph25.9 kmh 29.34 in993.6 mb 0.00 in0.0 mm 0.00 in/hr0.0 mm/hr 0.00 in0.0 mm
12:35 AM 47.5°F8.6°C 44.7°F7.1°C 90% 5.7 mph S9.2 kmh S 16.1 mph25.9 kmh 29.34 in993.6 mb 0.00 in0.0 mm 0.00 in/hr0.0 mm/hr 0.00 in0.0 mm
12:30 AM 47.6°F8.7°C 44.8°F7.1°C 90% 7.1 mph S11.4 kmh S 12.9 mph20.8 kmh 29.35 in993.9 mb 0.00 in0.0 mm 0.00 in/hr0.0 mm/hr 0.00 in0.0 mm
12:25 AM 47.6°F8.7°C 44.8°F7.1°C 90% 6.4 mph S10.3 kmh S 15.2 mph24.5 kmh 29.35 in993.9 mb 0.00 in0.0 mm 0.00 in/hr0.0 mm/hr 0.00 in0.0 mm
12:20 AM 47.8°F8.8°C 45.0°F7.2°C 90% 7.0 mph S11.3 kmh S 19.9 mph32.0 kmh 29.35 in993.9 mb 0.00 in0.0 mm 0.00 in/hr0.0 mm/hr 0.00 in0.0 mm
12:15 AM 48.0°F8.9°C 45.2°F7.3°C 90% 8.5 mph S13.7 kmh S 19.9 mph32.0 kmh 29.35 in993.9 mb 0.00 in0.0 mm 0.00 in/hr0.0 mm/hr 0.00 in0.0 mm
12:10 AM 48.0°F8.9°C 45.2°F7.3°C 90% 7.9 mph S12.7 kmh S 13.3 mph21.4 kmh 29.35 in993.9 mb 0.00 in0.0 mm 0.00 in/hr0.0 mm/hr 0.00 in0.0 mm
12:05 AM 48.2°F9.0°C 45.4°F7.4°C 90% 8.2 mph S13.2 kmh S 13.3 mph21.4 kmh 29.35 in993.9 mb 0.00 in0.0 mm 0.00 in/hr0.0 mm/hr 0.00 in0.0 mm
12:00 AM 48.2°F9.0°C 45.4°F7.4°C 90% 7.0 mph S11.3 kmh S 14.9 mph24.0 kmh 29.35 in993.9 mb 0.00 in0.0 mm 0.00 in/hr0.0 mm/hr 0.00 in0.0 mm